createdAt,value
2023-05-18T00:00:54.984Z,12.20
2023-05-18T00:03:21.435Z,11.88
2023-05-18T00:05:48.580Z,11.90
2023-05-18T00:08:14.887Z,11.19
2023-05-18T00:10:41.783Z,11.74
2023-05-18T00:13:08.313Z,11.94
2023-05-18T00:15:34.435Z,11.38
2023-05-18T00:18:00.594Z,11.90
2023-05-18T00:20:26.848Z,11.96
2023-05-18T00:22:53.207Z,11.67
2023-05-18T00:25:19.450Z,11.85
2023-05-18T00:27:46.066Z,11.98
2023-05-18T00:30:12.797Z,11.87
2023-05-18T00:32:39.013Z,11.88
2023-05-18T00:35:05.785Z,10.63
2023-05-18T00:37:31.948Z,11.49
2023-05-18T00:39:58.086Z,11.40
2023-05-18T00:42:24.222Z,11.73
2023-05-18T00:44:50.382Z,11.84
2023-05-18T00:47:17.791Z,11.77
2023-05-18T00:49:43.956Z,11.70
2023-05-18T00:52:10.087Z,11.58
2023-05-18T00:54:36.379Z,11.66
2023-05-18T00:57:03.477Z,11.23
2023-05-18T00:59:30.132Z,11.61
2023-05-18T01:02:21.963Z,11.62
2023-05-18T01:04:48.670Z,11.18
2023-05-18T01:07:15.873Z,11.45
2023-05-18T01:09:42.271Z,11.54
2023-05-18T01:12:21.500Z,11.06
2023-05-18T01:14:53.234Z,11.45
2023-05-18T01:17:28.395Z,11.53
2023-05-18T01:19:57.772Z,11.51
2023-05-18T01:22:41.884Z,10.83
2023-05-18T01:25:16.804Z,11.36
2023-05-18T01:27:45.763Z,11.12
2023-05-18T01:30:14.944Z,10.00
2023-05-18T01:32:41.904Z,11.37
2023-05-18T01:35:08.699Z,10.84
2023-05-18T01:37:34.894Z,11.14
2023-05-18T01:40:01.230Z,10.02
2023-05-18T01:42:27.740Z,11.13
2023-05-18T01:44:57.958Z,11.05
2023-05-18T01:47:24.495Z,11.23
2023-05-18T01:50:03.111Z,10.77
2023-05-18T01:52:35.983Z,11.03
2023-05-18T01:55:03.764Z,11.10
2023-05-18T01:57:32.353Z,11.10
2023-05-18T02:00:03.945Z,10.67
2023-05-18T02:02:30.205Z,11.15
2023-05-18T02:04:56.388Z,11.08
2023-05-18T02:07:22.538Z,9.91
2023-05-18T02:09:48.962Z,10.59
2023-05-18T02:12:15.066Z,11.06
2023-05-18T02:14:42.660Z,10.86
2023-05-18T02:17:08.795Z,10.88
2023-05-18T02:19:37.360Z,11.03
2023-05-18T02:22:07.466Z,10.90
2023-05-18T02:24:34.030Z,10.85
2023-05-18T02:27:00.754Z,11.07
2023-05-18T02:29:27.057Z,11.14
2023-05-18T02:31:53.289Z,10.85
2023-05-18T02:34:21.264Z,10.82
2023-05-18T02:36:48.100Z,10.00
2023-05-18T02:39:14.220Z,10.45
2023-05-18T02:41:40.592Z,10.13
2023-05-18T02:44:06.784Z,10.70
2023-05-18T02:46:33.032Z,10.65
2023-05-18T02:48:59.387Z,10.26
2023-05-18T02:51:26.224Z,10.55
2023-05-18T02:53:52.338Z,10.11
2023-05-18T02:56:18.502Z,10.61
2023-05-18T02:58:44.626Z,10.65
2023-05-18T03:01:13.688Z,10.72
2023-05-18T03:03:41.605Z,10.68
2023-05-18T03:06:08.461Z,10.64
2023-05-18T03:08:36.420Z,10.58
2023-05-18T03:11:02.892Z,10.51
2023-05-18T03:13:29.022Z,10.53
2023-05-18T03:15:56.012Z,10.60
2023-05-18T03:18:24.435Z,10.40
2023-05-18T03:20:51.424Z,10.54
2023-05-18T03:23:18.645Z,10.15
2023-05-18T03:25:45.238Z,10.23
2023-05-18T03:28:11.361Z,10.34
2023-05-18T03:30:37.529Z,10.43
2023-05-18T03:33:03.909Z,10.64
2023-05-18T03:35:30.549Z,10.52
2023-05-18T03:37:56.875Z,10.43
2023-05-18T03:40:24.251Z,10.56
2023-05-18T03:42:50.353Z,10.21
2023-05-18T03:45:17.164Z,10.33
2023-05-18T03:47:43.379Z,10.33
2023-05-18T03:50:10.149Z,10.38
2023-05-18T03:52:36.656Z,10.24
2023-05-18T03:55:03.698Z,10.14
2023-05-18T03:57:31.089Z,10.21
2023-05-18T03:59:57.553Z,9.67
2023-05-18T04:02:24.557Z,10.19
2023-05-18T04:04:53.265Z,10.15
2023-05-18T04:07:23.561Z,9.99
2023-05-18T04:09:54.353Z,9.99
2023-05-18T04:12:20.465Z,10.04
2023-05-18T04:14:48.883Z,10.02
2023-05-18T04:17:21.474Z,10.13
2023-05-18T04:19:48.656Z,10.12
2023-05-18T04:22:15.622Z,9.72
2023-05-18T04:24:42.279Z,10.16
2023-05-18T04:27:08.732Z,10.11
2023-05-18T04:29:38.465Z,10.16
2023-05-18T04:32:08.120Z,10.15
2023-05-18T04:34:35.172Z,10.08
2023-05-18T04:37:04.793Z,10.10
2023-05-18T04:39:32.230Z,9.94
2023-05-18T04:41:58.388Z,10.07
2023-05-18T04:44:26.784Z,10.32
2023-05-18T04:46:53.875Z,10.17
2023-05-18T04:49:25.368Z,10.33
2023-05-18T04:51:55.214Z,10.48
2023-05-18T04:54:25.369Z,10.23
2023-05-18T04:56:52.190Z,9.84
2023-05-18T04:59:18.726Z,10.60
2023-05-18T05:01:45.618Z,10.61
2023-05-18T05:04:12.456Z,10.75
2023-05-18T05:06:38.588Z,10.63
2023-05-18T05:09:04.806Z,10.89
2023-05-18T05:11:30.996Z,10.83
2023-05-18T05:13:57.170Z,10.99
2023-05-18T05:16:23.325Z,10.95
2023-05-18T05:18:49.475Z,11.10
2023-05-18T05:21:15.624Z,10.29
2023-05-18T05:23:41.768Z,10.54
2023-05-18T05:26:07.879Z,10.89
2023-05-18T05:28:34.041Z,10.79
2023-05-18T05:31:00.211Z,11.12
2023-05-18T05:33:26.423Z,10.98
2023-05-18T05:35:52.678Z,10.31
2023-05-18T05:38:18.782Z,11.38
2023-05-18T05:40:44.901Z,10.85
2023-05-18T05:43:11.014Z,11.40
2023-05-18T05:45:38.104Z,11.04
2023-05-18T05:48:04.499Z,10.89
2023-05-18T05:50:31.597Z,11.52
2023-05-18T05:52:57.732Z,11.86
2023-05-18T05:55:23.917Z,11.14
2023-05-18T05:57:50.135Z,11.21
2023-05-18T06:00:16.614Z,11.49
2023-05-18T06:02:42.856Z,11.86
2023-05-18T06:05:09.197Z,10.95
2023-05-18T06:07:35.867Z,10.89
2023-05-18T06:10:02.922Z,11.58
2023-05-18T06:12:29.059Z,11.74
2023-05-18T06:14:58.551Z,11.04
2023-05-18T06:17:25.727Z,10.00
2023-05-18T06:19:52.352Z,12.09
2023-05-18T06:22:18.549Z,12.38
2023-05-18T06:24:44.738Z,10.35
2023-05-18T06:27:10.882Z,11.90
2023-05-18T06:29:37.074Z,11.40
2023-05-18T06:32:03.721Z,12.29
2023-05-18T06:34:30.052Z,12.09
2023-05-18T06:36:56.248Z,11.73
2023-05-18T06:39:22.357Z,11.92
2023-05-18T06:41:50.975Z,10.81
2023-05-18T06:44:17.205Z,10.92
2023-05-18T06:46:43.402Z,11.43
2023-05-18T06:49:09.512Z,11.46
2023-05-18T06:51:36.404Z,12.06
2023-05-18T06:54:02.547Z,12.11
2023-05-18T06:56:28.862Z,11.38
2023-05-18T06:58:55.425Z,12.47
2023-05-18T07:01:21.549Z,12.06
2023-05-18T07:03:47.883Z,12.51
2023-05-18T07:06:14.024Z,12.55
2023-05-18T07:08:40.415Z,11.88
2023-05-18T07:11:06.642Z,12.90
2023-05-18T07:13:32.922Z,12.94
2023-05-18T07:15:59.106Z,14.00
2023-05-18T07:18:25.858Z,13.61
2023-05-18T07:20:52.015Z,13.58
2023-05-18T07:23:18.328Z,13.15
2023-05-18T07:25:44.676Z,11.54
2023-05-18T07:28:10.896Z,12.96
2023-05-18T07:30:37.186Z,11.93
2023-05-18T07:33:03.768Z,14.07
2023-05-18T07:35:30.411Z,13.77
2023-05-18T07:37:56.801Z,13.92
2023-05-18T07:40:22.995Z,14.60
2023-05-18T07:42:49.301Z,14.20
2023-05-18T07:45:15.501Z,14.19
2023-05-18T07:47:41.708Z,14.08
2023-05-18T07:50:08.446Z,14.38
2023-05-18T07:52:34.858Z,14.78
2023-05-18T07:55:01.101Z,14.42
2023-05-18T07:57:27.420Z,14.60
2023-05-18T07:59:53.740Z,14.80
2023-05-18T08:02:20.150Z,14.98
2023-05-18T08:04:46.991Z,14.50
2023-05-18T08:07:13.938Z,13.89
2023-05-18T08:09:40.273Z,14.48
2023-05-18T08:12:07.254Z,15.06
2023-05-18T08:14:33.402Z,14.93
2023-05-18T08:16:59.611Z,14.43
2023-05-18T08:19:26.008Z,14.89
2023-05-18T08:21:52.198Z,15.05
2023-05-18T08:24:18.316Z,15.30
2023-05-18T08:26:44.445Z,15.98
2023-05-18T08:29:10.602Z,15.53
2023-05-18T08:31:37.755Z,15.92
2023-05-18T08:34:05.492Z,16.04
2023-05-18T08:36:33.567Z,14.87
2023-05-18T08:38:59.875Z,15.50
2023-05-18T08:41:30.079Z,16.00
2023-05-18T08:44:20.172Z,16.44
2023-05-18T08:46:50.338Z,17.13
2023-05-18T08:49:18.675Z,16.33
2023-05-18T08:51:47.094Z,15.42
2023-05-18T08:54:19.253Z,15.48
2023-05-18T08:56:45.872Z,14.86
2023-05-18T08:59:12.538Z,17.07
2023-05-18T09:01:38.809Z,16.23
2023-05-18T09:04:05.237Z,16.04
2023-05-18T09:06:33.216Z,16.14
2023-05-18T09:09:03.688Z,14.89
2023-05-18T09:11:32.381Z,17.04
2023-05-18T09:13:59.253Z,16.40
2023-05-18T09:16:25.980Z,16.25
2023-05-18T09:18:52.977Z,15.88
2023-05-18T09:21:19.182Z,17.71
2023-05-18T09:23:45.359Z,17.71
2023-05-18T09:26:12.649Z,17.67
2023-05-18T09:28:41.112Z,17.03
2023-05-18T09:31:11.785Z,17.71
2023-05-18T09:33:39.345Z,15.68
2023-05-18T09:36:06.878Z,16.30
2023-05-18T09:38:37.632Z,16.80
2023-05-18T09:41:03.796Z,16.60
2023-05-18T09:43:30.427Z,17.02
2023-05-18T09:45:56.542Z,16.76
2023-05-18T09:48:24.858Z,17.61
2023-05-18T09:50:51.497Z,17.87
2023-05-18T09:53:18.069Z,16.45
2023-05-18T09:55:48.296Z,15.38
2023-05-18T09:58:15.103Z,16.99
2023-05-18T10:00:43.302Z,17.63
2023-05-18T10:03:32.409Z,16.49
2023-05-18T10:06:06.049Z,16.49
2023-05-18T10:08:33.271Z,18.04
2023-05-18T10:10:59.695Z,17.28
2023-05-18T10:13:27.723Z,17.82
2023-05-18T10:15:58.596Z,18.16
2023-05-18T10:18:29.250Z,17.69
2023-05-18T10:20:59.864Z,16.73
2023-05-18T10:23:30.267Z,17.18
2023-05-18T10:25:57.036Z,18.09
2023-05-18T10:28:28.097Z,16.87
2023-05-18T10:30:56.329Z,17.39
2023-05-18T10:33:29.507Z,17.89
2023-05-18T10:35:57.085Z,16.47
2023-05-18T10:38:27.317Z,16.67
2023-05-18T10:40:58.092Z,17.07
2023-05-18T10:43:26.774Z,17.64
2023-05-18T10:45:57.980Z,18.39
2023-05-18T10:48:25.141Z,18.24
2023-05-18T10:50:54.002Z,17.39
2023-05-18T10:53:22.576Z,18.49
2023-05-18T10:55:49.725Z,18.30
2023-05-18T10:58:17.822Z,17.65
2023-05-18T11:00:48.850Z,16.98
2023-05-18T11:03:16.662Z,17.85
2023-05-18T11:05:43.300Z,18.43
2023-05-18T11:08:09.663Z,17.88
2023-05-18T11:10:40.636Z,18.33
2023-05-18T11:13:07.465Z,18.88
2023-05-18T11:16:01.847Z,17.25
2023-05-18T11:18:51.137Z,18.33
2023-05-18T11:21:24.437Z,18.94
2023-05-18T11:24:19.083Z,19.57
2023-05-18T11:26:50.846Z,18.91
2023-05-18T11:29:17.893Z,18.36
2023-05-18T11:31:51.272Z,17.99
2023-05-18T11:34:39.174Z,17.51
2023-05-18T11:37:09.201Z,17.99
2023-05-18T11:39:37.656Z,17.15
2023-05-18T11:42:10.212Z,18.07
2023-05-18T11:44:36.434Z,18.44
2023-05-18T11:47:04.380Z,18.73
2023-05-18T11:49:32.956Z,19.59
2023-05-18T11:52:17.288Z,18.04
2023-05-18T11:54:49.954Z,19.52
2023-05-18T11:57:17.079Z,18.81
2023-05-18T11:59:47.419Z,17.49
2023-05-18T12:02:22.131Z,18.24
2023-05-18T12:04:51.005Z,18.33
2023-05-18T12:07:18.929Z,17.94
2023-05-18T12:09:46.444Z,19.17
2023-05-18T12:12:16.557Z,18.65
2023-05-18T12:14:44.631Z,18.02
2023-05-18T12:17:10.995Z,19.40
2023-05-18T12:19:48.082Z,18.05
2023-05-18T12:22:14.505Z,18.68
2023-05-18T12:24:42.421Z,19.08
2023-05-18T12:27:10.796Z,18.29
2023-05-18T12:29:38.075Z,19.37
2023-05-18T12:32:06.225Z,19.28
2023-05-18T12:34:32.764Z,19.38
2023-05-18T12:36:59.064Z,19.00
2023-05-18T12:39:27.830Z,19.28
2023-05-18T12:42:07.968Z,18.80
2023-05-18T12:44:34.097Z,19.60
2023-05-18T12:47:01.131Z,18.41
2023-05-18T12:49:27.352Z,18.02
2023-05-18T12:51:56.638Z,17.77
2023-05-18T12:54:32.231Z,19.68
2023-05-18T12:57:02.334Z,19.77
2023-05-18T12:59:28.766Z,20.09
2023-05-18T13:01:55.918Z,20.72
2023-05-18T13:04:22.411Z,19.67
2023-05-18T13:06:48.617Z,19.60
2023-05-18T13:09:15.618Z,20.40
2023-05-18T13:11:56.983Z,20.48
2023-05-18T13:14:32.321Z,18.55
2023-05-18T13:16:58.489Z,18.06
2023-05-18T13:19:25.488Z,18.24
2023-05-18T13:21:56.016Z,19.39
2023-05-18T13:24:22.183Z,19.77
2023-05-18T13:26:48.429Z,18.15
2023-05-18T13:29:14.553Z,19.34
2023-05-18T13:31:40.873Z,18.96
2023-05-18T13:34:07.072Z,19.03
2023-05-18T13:36:35.304Z,19.82
2023-05-18T13:39:04.854Z,17.83
2023-05-18T13:41:31.040Z,18.57
2023-05-18T13:43:57.128Z,18.97
2023-05-18T13:46:23.429Z,18.77
2023-05-18T13:48:49.586Z,18.67
2023-05-18T13:51:15.796Z,19.61
2023-05-18T13:53:41.918Z,19.56
2023-05-18T13:56:08.097Z,19.42
2023-05-18T13:58:35.319Z,19.86
2023-05-18T14:01:03.377Z,20.15
2023-05-18T14:03:30.456Z,19.49
2023-05-18T14:05:56.687Z,20.04
2023-05-18T14:08:22.804Z,20.18
2023-05-18T14:10:48.934Z,20.87
2023-05-18T14:13:15.119Z,20.07
2023-05-18T14:15:41.242Z,20.04
2023-05-18T14:18:07.466Z,19.46
2023-05-18T14:20:35.778Z,19.62
2023-05-18T14:23:04.223Z,20.58
2023-05-18T14:25:30.868Z,20.27
2023-05-18T14:27:56.960Z,19.20
2023-05-18T14:30:23.106Z,20.58
2023-05-18T14:32:49.275Z,20.11
2023-05-18T14:35:15.481Z,19.89
2023-05-18T14:37:41.585Z,20.44
2023-05-18T14:40:08.172Z,20.33
2023-05-18T14:42:35.780Z,20.01
2023-05-18T14:45:02.091Z,19.95
2023-05-18T14:47:28.339Z,20.07
2023-05-18T14:49:54.551Z,19.72
2023-05-18T14:52:20.693Z,20.14
2023-05-18T14:54:47.258Z,19.01
2023-05-18T14:57:13.423Z,19.45
2023-05-18T14:59:40.096Z,19.13
2023-05-18T15:02:07.382Z,18.80
2023-05-18T15:04:33.598Z,18.84
2023-05-18T15:07:00.313Z,19.60
2023-05-18T15:09:27.078Z,19.75
2023-05-18T15:11:53.283Z,20.15
2023-05-18T15:14:19.450Z,20.26
2023-05-18T15:16:45.668Z,18.59
2023-05-18T15:19:11.846Z,18.91
2023-05-18T15:21:38.299Z,19.50
2023-05-18T15:24:05.065Z,18.47
2023-05-18T15:26:31.259Z,18.68
2023-05-18T15:28:57.439Z,19.46
2023-05-18T15:31:23.672Z,18.64
2023-05-18T15:33:49.885Z,19.29
2023-05-18T15:36:16.095Z,19.11
2023-05-18T15:38:42.288Z,19.54
2023-05-18T15:41:08.465Z,19.09
2023-05-18T15:43:35.935Z,19.75
2023-05-18T15:46:02.191Z,19.16
2023-05-18T15:48:29.015Z,18.29
2023-05-18T15:50:55.103Z,19.48
2023-05-18T15:53:21.285Z,19.44
2023-05-18T15:55:50.072Z,19.04
2023-05-18T15:58:16.368Z,19.81
2023-05-18T16:00:42.589Z,20.00
2023-05-18T16:03:08.810Z,19.36
2023-05-18T16:05:35.107Z,19.34
2023-05-18T16:08:01.320Z,18.53
2023-05-18T16:10:27.607Z,19.42
2023-05-18T16:12:53.753Z,19.48
2023-05-18T16:15:23.540Z,18.94
2023-05-18T16:17:49.961Z,18.43
2023-05-18T16:20:17.078Z,17.69
2023-05-18T16:22:44.577Z,18.18
2023-05-18T16:25:10.736Z,18.86
2023-05-18T16:27:36.859Z,18.37
2023-05-18T16:30:03.241Z,18.77
2023-05-18T16:32:30.911Z,18.01
2023-05-18T16:34:57.258Z,18.14
2023-05-18T16:37:23.374Z,18.91
2023-05-18T16:39:49.500Z,17.77
2023-05-18T16:42:17.589Z,17.43
2023-05-18T16:44:43.717Z,17.55
2023-05-18T16:47:10.020Z,17.85
2023-05-18T16:49:36.149Z,17.97
2023-05-18T16:52:02.901Z,17.54
2023-05-18T16:54:29.024Z,18.08
2023-05-18T16:56:55.148Z,17.74
2023-05-18T16:59:22.153Z,17.65
2023-05-18T17:01:48.440Z,18.17
2023-05-18T17:04:14.765Z,18.05
2023-05-18T17:06:41.354Z,17.81
2023-05-18T17:09:07.613Z,17.68
2023-05-18T17:11:33.948Z,17.58
2023-05-18T17:14:00.879Z,17.31
2023-05-18T17:16:27.653Z,17.76
2023-05-18T17:18:54.321Z,18.07
2023-05-18T17:21:20.644Z,18.19
2023-05-18T17:23:46.826Z,18.16
2023-05-18T17:26:13.004Z,16.94
2023-05-18T17:28:39.207Z,17.84
2023-05-18T17:31:06.043Z,17.66
2023-05-18T17:33:32.168Z,17.40
2023-05-18T17:35:58.431Z,16.73
2023-05-18T17:38:24.560Z,17.50
2023-05-18T17:40:50.730Z,17.65
2023-05-18T17:43:16.916Z,17.25
2023-05-18T17:45:43.065Z,17.45
2023-05-18T17:48:09.357Z,17.11
2023-05-18T17:50:36.967Z,17.17
2023-05-18T17:53:04.125Z,17.26
2023-05-18T17:55:30.275Z,17.46
2023-05-18T17:57:58.877Z,16.49
2023-05-18T18:00:25.103Z,17.06
2023-05-18T18:02:51.308Z,17.13
2023-05-18T18:05:17.606Z,16.83
2023-05-18T18:07:43.732Z,17.23
2023-05-18T18:10:10.488Z,17.44
2023-05-18T18:12:36.724Z,16.61
2023-05-18T18:15:03.058Z,16.42
2023-05-18T18:17:29.344Z,16.73
2023-05-18T18:19:55.508Z,16.81
2023-05-18T18:22:21.775Z,17.30
2023-05-18T18:24:47.924Z,17.00
2023-05-18T18:27:14.156Z,17.03
2023-05-18T18:29:40.289Z,16.97
2023-05-18T18:32:07.693Z,16.91
2023-05-18T18:34:33.843Z,17.39
2023-05-18T18:36:59.972Z,17.37
2023-05-18T18:39:26.245Z,17.08
2023-05-18T18:41:52.603Z,16.76
2023-05-18T18:44:18.741Z,16.26
2023-05-18T18:46:45.868Z,16.66
2023-05-18T18:49:11.998Z,16.93
2023-05-18T18:51:38.121Z,16.35
2023-05-18T18:54:05.065Z,16.65
2023-05-18T18:56:31.365Z,17.07
2023-05-18T18:58:57.446Z,16.57
2023-05-18T19:01:23.614Z,16.19
2023-05-18T19:03:51.953Z,16.74
2023-05-18T19:06:18.095Z,16.64
2023-05-18T19:08:44.213Z,16.80
2023-05-18T19:11:10.320Z,16.44
2023-05-18T19:13:36.517Z,16.15
2023-05-18T19:16:02.775Z,16.02
2023-05-18T19:18:28.928Z,16.38
2023-05-18T19:20:55.193Z,16.26
2023-05-18T19:23:21.277Z,16.61
2023-05-18T19:25:47.397Z,16.24
2023-05-18T19:28:13.576Z,16.99
2023-05-18T19:30:39.774Z,16.89
2023-05-18T19:33:06.003Z,16.30
2023-05-18T19:35:32.449Z,16.65
2023-05-18T19:38:00.445Z,16.80
2023-05-18T19:40:28.196Z,16.42
2023-05-18T19:42:54.876Z,16.09
2023-05-18T19:45:21.329Z,16.92
2023-05-18T19:47:47.478Z,16.83
2023-05-18T19:50:13.612Z,16.19
2023-05-18T19:52:40.568Z,15.63
2023-05-18T19:55:06.805Z,16.79
2023-05-18T19:57:32.980Z,16.30
2023-05-18T19:59:59.191Z,16.72
2023-05-18T20:02:25.650Z,15.45
2023-05-18T20:04:52.947Z,16.61
2023-05-18T20:07:19.833Z,16.85
2023-05-18T20:09:46.956Z,16.16
2023-05-18T20:12:13.125Z,16.50
2023-05-18T20:14:39.302Z,16.94
2023-05-18T20:17:05.941Z,16.32
2023-05-18T20:19:32.119Z,17.02
2023-05-18T20:21:58.278Z,16.89
2023-05-18T20:24:24.433Z,16.54
2023-05-18T20:26:50.593Z,16.88
2023-05-18T20:29:16.791Z,16.66
2023-05-18T20:31:42.978Z,16.37
2023-05-18T20:34:09.085Z,16.01
2023-05-18T20:36:35.199Z,16.62
2023-05-18T20:39:01.740Z,16.81
2023-05-18T20:41:28.931Z,16.72
2023-05-18T20:43:56.154Z,16.76
2023-05-18T20:46:23.998Z,16.72
2023-05-18T20:48:51.885Z,16.75
2023-05-18T20:51:20.294Z,16.72
2023-05-18T20:53:48.021Z,16.75
2023-05-18T20:56:14.978Z,16.72
2023-05-18T20:58:41.958Z,16.60
2023-05-18T21:01:08.175Z,16.57
2023-05-18T21:03:34.427Z,16.63
2023-05-18T21:06:01.773Z,16.35
2023-05-18T21:08:27.887Z,15.88
2023-05-18T21:10:54.537Z,15.87
2023-05-18T21:13:20.648Z,15.15
2023-05-18T21:15:46.837Z,14.61
2023-05-18T21:18:13.142Z,15.18
2023-05-18T21:20:39.282Z,15.60
2023-05-18T21:23:05.492Z,15.27
2023-05-18T21:25:31.622Z,15.94
2023-05-18T21:27:57.756Z,15.28
2023-05-18T21:30:23.865Z,15.83
2023-05-18T21:32:51.950Z,15.79
2023-05-18T21:35:18.217Z,14.44
2023-05-18T21:37:44.395Z,15.35
2023-05-18T21:40:10.588Z,15.50
2023-05-18T21:42:40.569Z,15.26
2023-05-18T21:45:07.227Z,15.81
2023-05-18T21:47:33.409Z,15.23
2023-05-18T21:49:59.726Z,15.48
2023-05-18T21:52:25.820Z,15.37
2023-05-18T21:54:51.925Z,15.79
2023-05-18T21:57:18.312Z,15.91
2023-05-18T21:59:44.485Z,15.74
2023-05-18T22:02:10.601Z,15.78
2023-05-18T22:04:36.790Z,15.29
2023-05-18T22:07:03.200Z,15.66
2023-05-18T22:09:29.372Z,15.69
2023-05-18T22:11:55.526Z,15.81
2023-05-18T22:14:21.674Z,15.76
2023-05-18T22:16:47.867Z,15.82
2023-05-18T22:19:14.175Z,15.50
2023-05-18T22:21:41.123Z,15.73
2023-05-18T22:24:07.286Z,15.72
2023-05-18T22:26:33.444Z,14.41
2023-05-18T22:28:59.875Z,15.54
2023-05-18T22:31:26.192Z,14.99
2023-05-18T22:33:53.918Z,15.65
2023-05-18T22:36:20.923Z,14.01
2023-05-18T22:38:48.519Z,15.30
2023-05-18T22:41:15.825Z,14.64
2023-05-18T22:43:41.902Z,15.07
2023-05-18T22:46:08.100Z,14.45
2023-05-18T22:48:34.552Z,15.22
2023-05-18T22:51:00.760Z,14.74
2023-05-18T22:53:26.908Z,15.17
2023-05-18T22:55:53.085Z,15.38
2023-05-18T22:58:19.210Z,15.11
2023-05-18T23:00:45.333Z,14.73
2023-05-18T23:03:12.524Z,15.24
2023-05-18T23:05:41.277Z,14.86
2023-05-18T23:08:07.618Z,13.85
2023-05-18T23:10:34.179Z,13.77
2023-05-18T23:13:00.765Z,14.19
2023-05-18T23:15:27.107Z,13.10
2023-05-18T23:17:56.063Z,13.33
2023-05-18T23:20:22.263Z,13.67
2023-05-18T23:22:48.596Z,13.38
2023-05-18T23:25:14.800Z,13.13
2023-05-18T23:27:40.922Z,13.25
2023-05-18T23:30:07.444Z,14.07
2023-05-18T23:32:34.712Z,13.35
2023-05-18T23:35:03.691Z,13.62
2023-05-18T23:37:34.809Z,13.64
2023-05-18T23:40:04.198Z,13.05
2023-05-18T23:42:30.555Z,13.02
2023-05-18T23:44:56.981Z,13.78
2023-05-18T23:47:23.260Z,13.34
2023-05-18T23:49:49.995Z,14.02
2023-05-18T23:52:20.142Z,13.40
2023-05-18T23:54:49.675Z,13.04
2023-05-18T23:57:16.038Z,13.65
2023-05-18T23:59:42.425Z,13.08
